createdAt,value
2019-01-30T00:03:37.367Z,84.00
2019-01-30T00:09:39.705Z,84.10
2019-01-30T00:15:41.826Z,84.70
2019-01-30T00:21:44.141Z,85.10
2019-01-30T00:27:46.456Z,83.90
2019-01-30T00:33:48.771Z,83.20
2019-01-30T00:39:51.240Z,83.60
2019-01-30T00:45:53.411Z,83.40
2019-01-30T00:51:55.797Z,83.20
2019-01-30T00:57:59.229Z,83.30
2019-01-30T01:04:02.999Z,83.20
2019-01-30T01:10:07.307Z,83.70
2019-01-30T01:16:09.563Z,83.70
2019-01-30T01:22:11.960Z,84.00
2019-01-30T01:28:15.310Z,83.40
2019-01-30T01:34:17.687Z,83.30
2019-01-30T01:40:19.891Z,83.50
2019-01-30T01:46:22.306Z,82.90
2019-01-30T01:52:24.845Z,83.90
2019-01-30T01:58:27.128Z,83.80
2019-01-30T02:04:29.831Z,83.20
2019-01-30T02:10:32.232Z,83.50
2019-01-30T02:16:35.748Z,83.60
2019-01-30T02:22:38.228Z,83.50
2019-01-30T02:28:40.666Z,83.80
2019-01-30T02:34:43.152Z,84.00
2019-01-30T02:40:46.511Z,84.00
2019-01-30T02:46:49.570Z,83.90
2019-01-30T02:52:52.826Z,84.00
2019-01-30T02:58:56.332Z,83.90
2019-01-30T03:04:58.811Z,84.40
2019-01-30T03:11:01.231Z,84.60
2019-01-30T03:17:03.589Z,84.60
2019-01-30T03:23:05.907Z,84.60
2019-01-30T03:29:09.252Z,84.80
2019-01-30T03:35:11.527Z,85.00
2019-01-30T03:41:13.699Z,85.30
2019-01-30T03:47:15.979Z,85.10
2019-01-30T03:53:18.294Z,85.60
2019-01-30T03:59:20.551Z,86.00
2019-01-30T04:05:23.767Z,85.60
2019-01-30T04:11:26.368Z,85.90
2019-01-30T04:17:28.579Z,85.30
2019-01-30T04:23:30.956Z,85.30
2019-01-30T04:29:33.321Z,85.80
2019-01-30T04:35:35.435Z,85.20
2019-01-30T04:41:37.903Z,85.00
2019-01-30T04:47:40.892Z,85.40
2019-01-30T04:53:43.243Z,85.10
2019-01-30T04:59:45.414Z,85.30
2019-01-30T05:05:47.690Z,85.20
2019-01-30T05:11:50.923Z,85.00
2019-01-30T05:17:54.179Z,85.40
2019-01-30T05:23:57.706Z,85.70
2019-01-30T05:29:59.849Z,85.20
2019-01-30T05:36:01.995Z,85.10
2019-01-30T05:42:04.373Z,85.30
2019-01-30T05:48:13.690Z,85.30
2019-01-30T05:54:16.119Z,85.60
2019-01-30T06:00:31.677Z,86.20
2019-01-30T06:06:33.912Z,85.80
2019-01-30T06:12:36.279Z,85.50
2019-01-30T06:18:41.957Z,85.50
2019-01-30T06:24:45.031Z,85.50
2019-01-30T06:30:47.276Z,86.30
2019-01-30T06:36:49.549Z,85.30
2019-01-30T06:42:52.850Z,85.80
2019-01-30T06:48:56.336Z,85.70
2019-01-30T06:54:58.795Z,86.10
2019-01-30T07:01:01.099Z,86.50
2019-01-30T07:07:04.390Z,86.60
2019-01-30T07:13:06.704Z,86.60
2019-01-30T07:19:08.935Z,86.60
2019-01-30T07:25:12.385Z,86.60
2019-01-30T07:31:14.932Z,86.90
2019-01-30T07:37:17.097Z,87.80
2019-01-30T07:43:19.567Z,86.60
2019-01-30T07:49:22.063Z,87.90
2019-01-30T07:55:24.489Z,88.70
2019-01-30T08:01:28.096Z,87.80
2019-01-30T08:07:30.628Z,88.80
2019-01-30T08:13:33.189Z,90.30
2019-01-30T08:19:35.344Z,89.90
2019-01-30T08:25:38.523Z,88.80
2019-01-30T08:31:43.023Z,89.50
2019-01-30T08:37:45.981Z,90.60
2019-01-30T08:43:48.393Z,90.20
2019-01-30T08:49:51.535Z,90.60
2019-01-30T08:55:54.143Z,90.60
2019-01-30T09:01:56.588Z,90.50
2019-01-30T09:07:58.795Z,90.30
2019-01-30T09:14:01.145Z,90.50
2019-01-30T09:20:06.015Z,90.60
2019-01-30T09:26:08.547Z,90.90
2019-01-30T09:32:11.005Z,90.80
2019-01-30T09:38:14.358Z,90.80
2019-01-30T09:44:16.657Z,90.90
2019-01-30T09:50:19.105Z,91.50
2019-01-30T09:56:21.738Z,91.50
2019-01-30T10:02:25.779Z,91.30
2019-01-30T10:08:28.047Z,90.90
2019-01-30T10:14:30.695Z,92.10
2019-01-30T10:20:33.238Z,92.10
2019-01-30T10:26:35.703Z,91.00
2019-01-30T10:32:38.541Z,92.00
2019-01-30T10:38:40.831Z,92.10
2019-01-30T10:44:43.340Z,92.00
2019-01-30T10:50:45.740Z,91.00
2019-01-30T10:56:49.979Z,91.80
2019-01-30T11:02:52.171Z,91.90
2019-01-30T11:08:54.503Z,92.30
2019-01-30T11:14:58.044Z,91.20
2019-01-30T11:21:00.506Z,90.10
2019-01-30T11:27:02.777Z,90.40
2019-01-30T11:33:04.959Z,90.30
2019-01-30T11:39:07.230Z,88.90
2019-01-30T11:51:18.444Z,89.00
2019-01-30T11:57:20.963Z,87.50
2019-01-30T12:03:23.340Z,86.30
2019-01-30T12:09:26.057Z,86.20
2019-01-30T12:15:28.500Z,84.40
2019-01-30T12:21:30.879Z,85.30
2019-01-30T12:27:33.699Z,82.10
2019-01-30T12:33:37.546Z,79.00
2019-01-30T12:39:39.739Z,74.60
2019-01-30T12:45:44.619Z,72.80
2019-01-30T12:51:48.710Z,70.80
2019-01-30T12:57:51.312Z,71.70
2019-01-30T13:03:53.642Z,72.70
2019-01-30T13:09:56.208Z,71.70
2019-01-30T13:15:58.702Z,73.10
2019-01-30T13:22:02.651Z,68.90
2019-01-30T13:28:05.463Z,66.50
2019-01-30T13:34:07.705Z,63.20
2019-01-30T13:40:13.565Z,65.10
2019-01-30T13:46:18.008Z,67.20
2019-01-30T13:52:20.573Z,69.80
2019-01-30T13:58:23.089Z,70.70
2019-01-30T14:04:25.916Z,67.90
2019-01-30T14:10:28.468Z,68.20
2019-01-30T14:16:30.944Z,68.00
2019-01-30T14:22:33.230Z,67.70
2019-01-30T14:28:35.600Z,67.30
2019-01-30T14:34:38.241Z,66.70
2019-01-30T14:40:40.678Z,69.70
2019-01-30T14:46:43.206Z,69.70
2019-01-30T14:52:46.903Z,69.50
2019-01-30T14:58:49.743Z,70.30
2019-01-30T15:04:52.243Z,71.00
2019-01-30T15:10:54.669Z,70.30
2019-01-30T15:16:56.958Z,69.00
2019-01-30T15:22:59.948Z,69.80
2019-01-30T15:29:02.203Z,66.70
2019-01-30T15:35:05.703Z,69.60
2019-01-30T15:41:08.109Z,72.00
2019-01-30T15:47:12.407Z,73.10
2019-01-30T15:53:18.284Z,73.30
2019-01-30T15:59:20.876Z,74.90
2019-01-30T16:05:23.474Z,75.10
2019-01-30T16:11:25.854Z,75.80
2019-01-30T16:17:28.216Z,75.50
2019-01-30T16:23:31.580Z,74.60
2019-01-30T16:29:34.964Z,76.20
2019-01-30T16:35:37.187Z,77.60
2019-01-30T16:41:39.544Z,78.40
2019-01-30T16:47:43.977Z,79.60
2019-01-30T16:53:46.225Z,80.20
2019-01-30T16:59:48.457Z,79.40
2019-01-30T17:05:51.888Z,79.20
2019-01-30T17:11:55.188Z,79.10
2019-01-30T17:17:57.469Z,79.70
2019-01-30T17:24:00.967Z,80.30
2019-01-30T17:30:08.152Z,80.70
2019-01-30T17:36:18.118Z,81.70
2019-01-30T17:42:15.000Z,82.50
2019-01-30T17:48:20.094Z,82.50
2019-01-30T17:54:22.205Z,82.60
2019-01-30T18:00:31.611Z,82.30
2019-01-30T18:06:44.810Z,83.20
2019-01-30T18:12:47.028Z,83.00
2019-01-30T18:18:49.228Z,83.50
2019-01-30T18:24:51.370Z,84.50
2019-01-30T18:30:53.472Z,84.40
2019-01-30T18:36:55.663Z,84.70
2019-01-30T18:42:57.817Z,84.60
2019-01-30T18:49:01.715Z,84.80
2019-01-30T18:55:04.485Z,85.10
2019-01-30T19:01:06.868Z,85.30
2019-01-30T19:07:09.156Z,85.10
2019-01-30T19:13:11.391Z,85.00
2019-01-30T19:19:13.590Z,84.80
2019-01-30T19:25:17.556Z,86.00
2019-01-30T19:31:21.848Z,86.60
2019-01-30T19:37:25.207Z,87.00
2019-01-30T19:43:27.327Z,86.80
2019-01-30T19:49:30.676Z,86.80
2019-01-30T19:55:32.830Z,87.00
2019-01-30T20:01:36.168Z,87.30
2019-01-30T20:07:38.935Z,87.10
2019-01-30T20:13:41.548Z,88.00
2019-01-30T20:19:45.339Z,87.30
2019-01-30T20:25:47.807Z,87.00
2019-01-30T20:31:50.091Z,87.00
2019-01-30T20:37:52.384Z,86.70
2019-01-30T20:43:54.752Z,86.70
2019-01-30T20:49:58.080Z,86.50
2019-01-30T20:56:00.715Z,86.40
2019-01-30T21:02:02.915Z,86.30
2019-01-30T21:08:05.949Z,86.40
2019-01-30T21:14:08.225Z,86.50
2019-01-30T21:20:11.313Z,86.80
2019-01-30T21:26:13.472Z,87.20
2019-01-30T21:32:15.655Z,87.00
2019-01-30T21:38:20.169Z,87.00
2019-01-30T21:44:22.383Z,87.30
2019-01-30T21:50:24.761Z,87.60
2019-01-30T21:56:27.903Z,87.60
2019-01-30T22:02:30.399Z,87.50
2019-01-30T22:08:35.770Z,87.00
2019-01-30T22:14:38.162Z,87.10
2019-01-30T22:20:40.438Z,87.30
2019-01-30T22:26:43.424Z,87.60
2019-01-30T22:32:46.905Z,87.50
2019-01-30T22:38:50.231Z,87.80
2019-01-30T22:44:52.523Z,87.50
2019-01-30T22:50:54.970Z,88.00
2019-01-30T22:56:57.083Z,88.00
2019-01-30T23:03:03.331Z,88.20
2019-01-30T23:09:56.366Z,88.20
2019-01-30T23:16:32.011Z,88.00
2019-01-30T23:23:31.738Z,88.20
2019-01-30T23:30:33.817Z,88.50
2019-01-30T23:37:33.026Z,88.50
2019-01-30T23:44:16.842Z,88.70
2019-01-30T23:50:37.835Z,88.40
2019-01-30T23:57:12.647Z,88.20
